Time;durP1;ratioP1;P1;durP2;ratioP2;P2;SDS_P1;SDS_P2;PMS_P1;PMS_P2;Temp;Humidity;BMP_temperature;BMP_pressure;BME280_temperature;BME280_humidity;BME280_pressure;Samples;Min_cycle;Max_cycle;Signal;HPM_P1;HPM_P2
2022/10/12 00:01:02;;;;;;;17.33;6.97;;;;;;;16.21;81.45;101437.88;5053268;28;20048;-71
2022/10/12 00:03:32;;;;;;;10.93;6.95;;;;;;;16.18;80.49;101435.72;5053155;28;20049;-72
2022/10/12 00:06:02;;;;;;;17.35;7.88;;;;;;;16.20;80.37;101431.53;5053076;28;20045;-72
2022/10/12 00:08:30;;;;;;;13.18;7.55;;;;;;;16.21;80.71;101440.63;5053254;28;20116;-72
2022/10/12 00:10:58;;;;;;;14.80;7.50;;;;;;;16.19;80.50;101445.66;5052897;28;20514;-72
2022/10/12 00:13:26;;;;;;;14.43;7.78;;;;;;;16.08;80.98;101431.97;5051985;28;20044;-72
2022/10/12 00:15:54;;;;;;;10.82;7.22;;;;;;;16.12;80.92;101432.19;5053062;28;20407;-72
2022/10/12 00:18:22;;;;;;;12.57;7.22;;;;;;;16.15;81.08;101428.03;5053009;28;20044;-72
2022/10/12 00:21:06;;;;;;;10.70;6.97;;;;;;;16.11;81.55;101434.16;5052739;28;20052;-72
2022/10/12 00:23:36;;;;;;;14.77;7.85;;;;;;;16.12;80.93;101441.31;5051560;28;20049;-72
2022/10/12 00:26:06;;;;;;;12.90;7.35;;;;;;;16.06;81.52;101438.91;5052777;28;20040;-72
2022/10/12 00:28:35;;;;;;;13.10;7.50;;;;;;;16.05;81.52;101440.84;5052894;28;20045;-72
2022/10/12 00:31:14;;;;;;;12.50;7.43;;;;;;;16.09;81.47;101441.88;5052591;28;20053;-72
2022/10/12 00:33:42;;;;;;;14.15;7.72;;;;;;;16.05;81.45;101440.03;5052286;28;20055;-72
2022/10/12 00:36:25;;;;;;;12.80;7.90;;;;;;;16.07;81.55;101435.84;5052922;28;20479;-72
2022/10/12 00:38:55;;;;;;;11.30;6.68;;;;;;;16.04;81.25;101432.88;5052606;28;20048;-72
2022/10/12 00:41:29;;;;;;;13.52;7.03;;;;;;;16.05;81.53;101431.75;5052022;28;20052;-72
2022/10/12 00:43:57;;;;;;;11.73;7.25;;;;;;;16.02;81.39;101435.91;5051861;28;20056;-72
2022/10/12 00:46:33;;;;;;;12.20;7.25;;;;;;;16.05;81.39;101431.75;5051359;28;20049;-72
2022/10/12 00:49:15;;;;;;;18.17;7.80;;;;;;;16.02;81.37;101430.41;5052637;28;20048;-72
2022/10/12 00:51:52;;;;;;;14.88;8.80;;;;;;;16.01;81.16;101428.75;5052405;28;20485;-72
2022/10/12 00:54:31;;;;;;;19.90;7.93;;;;;;;16.04;81.44;101430.09;5052050;28;20045;-72
2022/10/12 00:57:01;;;;;;;14.43;7.00;;;;;;;15.98;81.73;101426.56;5052198;28;20041;-72
2022/10/12 00:59:39;;;;;;;17.52;8.02;;;;;;;15.94;82.25;101426.34;5052401;28;20495;-72
2022/10/12 01:02:07;;;;;;;12.18;7.35;;;;;;;15.95;81.61;101430.78;5051955;28;20056;-72
2022/10/12 01:04:36;;;;;;;13.63;6.55;;;;;;;15.95;81.67;101427.19;5052296;28;20407;-72
2022/10/12 01:07:04;;;;;;;11.23;7.13;;;;;;;15.93;81.23;101421.94;5051088;28;20045;-72
2022/10/12 01:09:32;;;;;;;11.95;6.80;;;;;;;15.98;81.01;101434.84;5052035;28;20044;-72
2022/10/12 01:12:04;;;;;;;10.60;6.50;;;;;;;15.97;80.67;101423.00;5050872;28;20056;-72
2022/10/12 01:14:32;;;;;;;10.18;6.53;;;;;;;16.05;80.13;101429.81;5052018;28;20048;-72
2022/10/12 01:17:16;;;;;;;10.15;6.70;;;;;;;16.03;80.51;101431.22;5052121;28;20068;-72
2022/10/12 01:20:04;;;;;;;15.48;6.05;;;;;;;15.95;80.95;101435.47;5052087;28;20045;-72
2022/10/12 01:22:42;;;;;;;9.88;5.90;;;;;;;15.83;81.39;101422.88;5050449;28;20410;-72
2022/10/12 01:26:09;;;;;;;9.23;6.38;;;;;;;15.77;81.31;101417.69;5051855;28;20056;-72
2022/10/12 01:28:55;;;;;;;9.40;6.38;;;;;;;15.90;80.29;101421.69;5052023;28;20518;-72
2022/10/12 01:31:32;;;;;;;10.57;6.03;;;;;;;16.04;79.96;101425.38;5051603;28;20048;-72
2022/10/12 01:34:14;;;;;;;12.48;7.20;;;;;;;15.92;80.40;101424.97;5051991;28;20037;-72
2022/10/12 01:36:47;;;;;;;9.48;6.15;;;;;;;15.90;80.35;101427.22;5051787;28;20041;-72
2022/10/12 01:39:37;;;;;;;14.30;6.97;;;;;;;15.87;80.62;101425.06;5051629;28;20056;-72
2022/10/12 01:42:16;;;;;;;10.27;6.55;;;;;;;15.77;81.47;101423.22;5049397;28;20040;-72
2022/10/12 01:44:44;;;;;;;8.98;6.22;;;;;;;15.66;81.94;101423.38;5051782;28;20482;-72
2022/10/12 01:47:12;;;;;;;10.82;6.55;;;;;;;15.71;81.60;101417.78;5051654;28;20051;-72
2022/10/12 01:49:40;;;;;;;11.10;6.35;;;;;;;15.67;81.91;101424.16;5051670;28;20491;-72
2022/10/12 01:52:28;;;;;;;9.50;6.03;;;;;;;15.66;81.91;101422.53;5051539;28;20376;-72
2022/10/12 01:55:24;;;;;;;9.30;6.57;;;;;;;15.70;81.86;101429.13;5050704;28;20060;-72
2022/10/12 01:58:09;;;;;;;11.27;6.13;;;;;;;15.69;81.62;101422.75;5037374;28;20045;-72
2022/10/12 02:00:46;;;;;;;12.82;6.65;;;;;;;15.63;81.69;101428.66;5050344;28;20376;-72
2022/10/12 02:03:21;;;;;;;10.20;6.22;;;;;;;15.65;82.15;101431.94;5050347;28;20060;-73
2022/10/12 02:05:49;;;;;;;7.32;5.70;;;;;;;15.66;82.12;101428.88;5053105;28;20041;-73
2022/10/12 02:08:33;;;;;;;10.77;6.53;;;;;;;15.55;83.32;101433.69;5055475;28;20056;-73
2022/10/12 02:11:01;;;;;;;10.10;6.20;;;;;;;15.64;82.02;101431.09;5055158;28;20041;-72
2022/10/12 02:13:33;;;;;;;13.65;6.15;;;;;;;15.63;81.35;101428.66;5055405;28;20044;-73
2022/10/12 02:16:06;;;;;;;10.05;6.25;;;;;;;15.65;81.83;101431.94;5055208;28;20040;-73
2022/10/12 02:18:39;;;;;;;9.30;6.07;;;;;;;15.66;81.96;101428.06;5055438;28;20056;-72
2022/10/12 02:21:08;;;;;;;13.75;6.75;;;;;;;15.66;81.41;101419.78;5054148;28;20037;-72
2022/10/12 02:23:37;;;;;;;9.52;6.13;;;;;;;15.61;81.98;101420.66;5054918;28;20056;-72
2022/10/12 02:26:06;;;;;;;10.27;6.22;;;;;;;15.65;81.56;101424.47;5054983;28;20045;-72
2022/10/12 02:28:36;;;;;;;13.25;6.95;;;;;;;15.54;82.52;101420.19;5055137;28;20040;-72
2022/10/12 02:31:30;;;;;;;13.43;6.32;;;;;;;15.55;82.27;101414.38;5054799;28;20123;-72
2022/10/12 02:34:13;;;;;;;9.63;6.40;;;;;;;15.50;82.21;101411.66;5055030;28;20498;-72
2022/10/12 02:36:53;;;;;;;10.82;6.18;;;;;;;15.50;82.36;101408.09;5054833;28;20052;-72
2022/10/12 02:39:43;;;;;;;9.50;5.75;;;;;;;15.47;82.39;101404.00;5054907;28;20045;-72
2022/10/12 02:42:26;;;;;;;10.95;6.50;;;;;;;15.46;82.27;101399.59;5040654;28;20059;-72
2022/10/12 02:44:57;;;;;;;10.27;5.65;;;;;;;15.44;82.62;101404.56;5054806;28;20049;-73
2022/10/12 02:47:27;;;;;;;11.45;6.78;;;;;;;15.48;82.92;101402.88;5054800;28;20045;-72
2022/10/12 02:49:59;;;;;;;8.00;5.57;;;;;;;15.42;82.14;101401.28;5053368;28;20045;-72
2022/10/12 02:52:28;;;;;;;10.15;6.65;;;;;;;15.44;83.06;101399.03;5054549;28;20056;-72
2022/10/12 02:54:56;;;;;;;8.95;5.63;;;;;;;15.42;82.93;101401.28;5053572;28;20053;-72
2022/10/12 02:57:24;;;;;;;8.85;6.13;;;;;;;15.46;82.70;101407.88;5053506;28;20052;-72
2022/10/12 02:59:52;;;;;;;9.85;5.53;;;;;;;15.42;83.20;101399.34;5054455;28;20045;-72
2022/10/12 03:02:20;;;;;;;9.25;5.13;;;;;;;15.42;82.93;101404.88;5054223;28;20052;-72
2022/10/12 03:04:47;;;;;;;9.23;6.13;;;;;;;15.45;82.65;101403.47;5054435;28;20044;-72
2022/10/12 03:07:15;;;;;;;7.88;6.05;;;;;;;15.47;82.83;101408.66;5054222;28;20053;-72
2022/10/12 03:09:43;;;;;;;10.40;5.15;;;;;;;15.42;83.06;101401.28;5054370;28;20037;-72
2022/10/12 03:12:11;;;;;;;8.93;5.45;;;;;;;15.42;82.46;101404.88;5054134;28;20515;-72
2022/10/12 03:14:39;;;;;;;10.82;6.22;;;;;;;15.36;83.23;101400.53;5052891;28;20506;-72
2022/10/12 03:17:07;;;;;;;8.80;6.05;;;;;;;15.29;83.60;101409.13;5053826;28;20899;-72
2022/10/12 03:19:37;;;;;;;9.55;5.78;;;;;;;15.35;82.94;101393.34;5052713;28;20045;-72
2022/10/12 03:22:05;;;;;;;11.60;6.60;;;;;;;15.41;82.68;101399.66;5053795;28;20506;-72
2022/10/12 03:24:33;;;;;;;8.82;5.82;;;;;;;15.30;84.25;101405.25;5053996;28;20047;-72
2022/10/12 03:27:00;;;;;;;7.20;5.28;;;;;;;15.35;83.61;101389.78;5054004;28;20052;-72
2022/10/12 03:29:28;;;;;;;7.47;5.63;;;;;;;15.43;82.76;101391.88;5053795;28;20045;-72
2022/10/12 03:31:56;;;;;;;9.65;5.75;;;;;;;15.40;82.77;101393.28;5053723;28;20048;-72
2022/10/12 03:34:24;;;;;;;10.73;5.72;;;;;;;15.29;83.33;101389.84;5053838;28;20123;-72
2022/10/12 03:36:52;;;;;;;11.20;6.22;;;;;;;15.28;83.39;101404.75;5053735;28;20399;-72
2022/10/12 03:39:19;;;;;;;11.13;6.18;;;;;;;15.38;83.10;101401.06;5053581;28;20055;-72
2022/10/12 03:41:47;;;;;;;8.93;5.40;;;;;;;15.34;83.52;101388.16;5053413;28;20076;-72
2022/10/12 03:44:15;;;;;;;11.82;5.75;;;;;;;15.42;82.67;101401.28;5052522;28;20542;-73
2022/10/12 03:46:43;;;;;;;9.35;5.75;;;;;;;15.38;82.48;101405.72;5053503;28;20527;-72
2022/10/12 03:49:10;;;;;;;10.13;5.88;;;;;;;15.30;82.35;101399.75;5052403;28;20399;-72
2022/10/12 03:51:38;;;;;;;13.15;5.32;;;;;;;15.22;83.57;101396.81;5053450;28;20391;-72
2022/10/12 03:54:06;;;;;;;7.93;5.55;;;;;;;15.15;83.99;101409.00;5052131;28;20487;-72
2022/10/12 03:56:34;;;;;;;7.85;5.40;;;;;;;15.17;83.85;101405.97;5053538;28;20769;-72
2022/10/12 03:59:02;;;;;;;8.23;5.18;;;;;;;15.14;83.84;101404.59;5051154;28;20049;-72
2022/10/12 04:01:30;;;;;;;9.45;5.45;;;;;;;15.15;84.11;101403.47;5053274;28;20048;-72
2022/10/12 04:03:58;;;;;;;9.00;5.72;;;;;;;15.05;84.44;101398.91;5051926;28;20053;-72
2022/10/12 04:06:26;;;;;;;8.02;5.20;;;;;;;15.11;83.57;101407.94;5053254;28;20037;-72
2022/10/12 04:08:54;;;;;;;10.10;6.57;;;;;;;15.03;83.63;101398.38;5051886;28;20041;-72
2022/10/12 04:11:22;;;;;;;15.77;6.88;;;;;;;15.07;83.89;101400.53;5053078;28;20520;-72
2022/10/12 04:13:50;;;;;;;13.90;6.35;;;;;;;14.94;83.65;101402.84;5053130;28;20049;-72
2022/10/12 04:16:17;;;;;;;11.40;5.85;;;;;;;14.99;84.18;101402.81;5052946;28;20048;-72
2022/10/12 04:18:45;;;;;;;14.95;5.97;;;;;;;14.95;83.95;101393.47;5052973;28;20049;-72
2022/10/12 04:21:15;;;;;;;10.77;5.93;;;;;;;14.97;84.05;101395.94;5052719;28;20049;-72
2022/10/12 04:23:42;;;;;;;10.02;5.20;;;;;;;15.01;83.88;101399.78;5052765;28;20507;-73
2022/10/12 04:26:10;;;;;;;8.55;5.40;;;;;;;15.00;84.64;101398.13;5052733;28;20037;-72
2022/10/12 04:28:38;;;;;;;9.38;4.93;;;;;;;15.07;83.55;101403.28;5050875;28;20056;-73
2022/10/12 04:31:06;;;;;;;6.80;4.95;;;;;;;15.15;83.57;101399.94;5052667;28;20045;-72
2022/10/12 04:33:34;;;;;;;6.88;4.57;;;;;;;15.28;82.49;101398.41;5050694;28;20404;-72
2022/10/12 04:36:02;;;;;;;10.38;5.68;;;;;;;15.23;83.09;101392.94;5051487;28;20079;-72
2022/10/12 04:38:29;;;;;;;7.43;4.95;;;;;;;15.21;82.76;101401.50;5052438;28;20063;-73
2022/10/12 04:40:57;;;;;;;12.18;5.32;;;;;;;15.16;83.29;101404.31;5052571;28;20037;-73
2022/10/12 04:43:25;;;;;;;11.18;5.90;;;;;;;15.10;83.08;101399.97;5050546;28;20055;-73
2022/10/12 04:45:55;;;;;;;7.82;4.93;;;;;;;15.03;84.02;101401.13;5052545;28;20048;-73
2022/10/12 04:48:24;;;;;;;7.10;4.82;;;;;;;14.93;83.92;101400.38;5052454;28;20052;-73
2022/10/12 04:50:52;;;;;;;9.48;5.03;;;;;;;14.98;83.82;101406.69;5052273;28;20041;-73
2022/10/12 04:53:20;;;;;;;9.65;4.47;;;;;;;14.89;84.50;101403.75;5052421;28;20056;-72
2022/10/12 04:55:49;;;;;;;7.78;5.10;;;;;;;15.15;83.47;101403.47;5052184;28;20651;-71
2022/10/12 04:58:17;;;;;;;10.77;5.78;;;;;;;15.09;83.61;101401.91;5052315;28;20041;-71
2022/10/12 05:00:47;;;;;;;10.75;4.63;;;;;;;15.15;82.95;101409.00;5051399;28;20040;-71
2022/10/12 05:03:15;;;;;;;10.15;5.07;;;;;;;15.21;82.98;101404.28;5052156;28;20427;-71
2022/10/12 05:05:44;;;;;;;8.55;5.50;;;;;;;15.17;82.99;101405.97;5052070;28;20052;-71
2022/10/12 05:08:12;;;;;;;7.50;5.82;;;;;;;15.12;83.64;101409.59;5051741;28;20049;-70
2022/10/12 05:10:40;;;;;;;9.90;5.68;;;;;;;15.11;83.67;101409.88;5050724;28;20499;-70
2022/10/12 05:13:07;;;;;;;11.05;6.03;;;;;;;15.08;83.35;101408.53;5046380;28;20503;-72
2022/10/12 05:15:35;;;;;;;8.50;5.03;;;;;;;15.10;83.15;101411.00;5045794;28;20041;-71
2022/10/12 05:18:04;;;;;;;9.20;4.90;;;;;;;15.10;83.08;101411.81;5033429;28;20390;-71
2022/10/12 05:20:31;;;;;;;8.60;4.65;;;;;;;15.14;83.28;101412.03;5049617;28;20049;-70
2022/10/12 05:22:59;;;;;;;8.57;5.18;;;;;;;15.05;83.73;101420.94;5048459;28;20499;-71
2022/10/12 05:25:30;;;;;;;9.75;5.63;;;;;;;15.07;83.43;101423.44;5047057;28;20045;-71
2022/10/12 05:27:58;;;;;;;9.45;4.85;;;;;;;15.04;83.55;101424.00;5038129;28;20396;-70
2022/10/12 05:30:26;;;;;;;8.95;5.47;;;;;;;15.10;83.47;101425.59;5039104;28;20095;-71
2022/10/12 05:32:53;;;;;;;8.18;5.15;;;;;;;15.10;83.64;101425.59;5047936;28;20048;-71
2022/10/12 05:35:21;;;;;;;10.63;4.38;;;;;;;15.07;82.86;101425.34;5051765;28;20060;-70
2022/10/12 05:37:49;;;;;;;10.80;5.28;;;;;;;15.07;83.19;101419.84;5049663;28;20056;-72
2022/10/12 05:40:17;;;;;;;6.47;4.43;;;;;;;15.04;82.68;101424.81;5054246;28;20055;-71
2022/10/12 05:42:45;;;;;;;7.13;5.07;;;;;;;15.14;83.46;101434.09;5054437;28;20396;-72
2022/10/12 05:45:13;;;;;;;7.90;4.63;;;;;;;15.10;83.39;101428.34;5053303;28;20372;-71
2022/10/12 05:47:41;;;;;;;7.47;4.60;;;;;;;15.24;82.62;101428.50;5055117;28;20048;-70
2022/10/12 05:50:09;;;;;;;7.05;4.22;;;;;;;15.38;82.45;101422.28;5055693;28;20056;-70
2022/10/12 05:52:37;;;;;;;6.68;4.07;;;;;;;15.31;82.93;101431.72;5055952;28;20041;-70
2022/10/12 05:55:05;;;;;;;7.35;4.68;;;;;;;15.45;82.67;101433.81;5055615;28;20044;-72
2022/10/12 05:57:33;;;;;;;7.55;4.70;;;;;;;15.51;81.35;101440.09;5054587;28;20052;-72
2022/10/12 06:00:01;;;;;;;11.55;5.47;;;;;;;15.42;82.41;101439.91;5055432;28;20064;-70
2022/10/12 06:02:36;;;;;;;9.27;5.18;;;;;;;15.43;81.87;101447.88;5055117;28;20403;-70
2022/10/12 06:05:04;;;;;;;10.57;4.78;;;;;;;15.57;81.33;101441.66;5055144;28;20041;-70
2022/10/12 06:07:32;;;;;;;7.00;4.65;;;;;;;15.55;81.20;101443.91;5055295;28;20045;-70
2022/10/12 06:10:00;;;;;;;13.20;4.80;;;;;;;15.68;81.23;101447.88;5055233;28;20488;-70
2022/10/12 06:12:28;;;;;;;10.48;4.63;;;;;;;15.70;80.57;101451.19;5041467;28;20049;-70
2022/10/12 06:14:56;;;;;;;11.93;5.20;;;;;;;15.61;81.41;101452.94;5055119;28;20049;-70
2022/10/12 06:17:23;;;;;;;9.32;4.97;;;;;;;15.76;80.65;101455.53;5054974;28;20365;-70
2022/10/12 06:19:54;;;;;;;9.10;4.75;;;;;;;15.79;80.60;101454.94;5055043;28;20048;-70
2022/10/12 06:22:22;;;;;;;13.68;6.00;;;;;;;15.92;80.22;101470.00;5054578;28;20506;-70
2022/10/12 06:24:50;;;;;;;8.55;4.65;;;;;;;16.08;79.89;101469.81;5054994;28;20044;-70
2022/10/12 06:27:19;;;;;;;10.80;4.90;;;;;;;16.04;79.02;101464.03;5055006;28;20040;-70
2022/10/12 06:29:47;;;;;;;6.45;4.47;;;;;;;15.96;80.27;101473.81;5053651;28;20045;-71
2022/10/12 06:32:14;;;;;;;8.50;4.70;;;;;;;16.32;78.53;101474.47;5054896;28;20052;-71
2022/10/12 06:34:42;;;;;;;8.20;4.70;;;;;;;16.37;78.47;101477.97;5054778;28;20049;-71
2022/10/12 06:37:10;;;;;;;8.50;5.03;;;;;;;16.72;77.35;101474.19;5054540;28;20048;-71
2022/10/12 06:39:58;;;;;;;8.75;5.07;;;;;;;16.86;77.04;101483.34;5054505;28;20049;-70
2022/10/12 06:42:25;;;;;;;6.32;4.30;;;;;;;16.81;76.15;101485.38;5054654;28;20518;-71
2022/10/12 06:44:53;;;;;;;8.50;4.65;;;;;;;16.84;75.84;101485.59;5054978;28;20048;-71
2022/10/12 06:47:21;;;;;;;10.00;5.03;;;;;;;17.15;75.16;101485.13;5054743;28;20495;-71
2022/10/12 06:49:49;;;;;;;8.23;5.53;;;;;;;17.26;74.35;101496.00;5052945;28;20053;-70
2022/10/12 06:52:17;;;;;;;6.25;4.22;;;;;;;17.49;74.87;101490.63;5053377;28;20049;-70
2022/10/12 06:54:44;;;;;;;7.95;4.65;;;;;;;17.72;73.32;101488.81;5054489;28;20488;-71
2022/10/12 06:57:13;;;;;;;7.25;4.65;;;;;;;17.77;73.12;101496.19;5054105;28;20052;-70
2022/10/12 06:59:41;;;;;;;8.60;4.53;;;;;;;18.07;71.91;101491.19;5054300;28;20056;-70
2022/10/12 07:02:10;;;;;;;8.05;4.32;;;;;;;18.23;71.59;101491.69;5053990;28;20049;-70
2022/10/12 07:04:38;;;;;;;9.43;4.45;;;;;;;18.08;71.81;101501.16;5054292;28;20483;-70
2022/10/12 07:07:05;;;;;;;5.90;3.88;;;;;;;18.31;71.46;101487.34;5054121;28;20484;-70
2022/10/12 07:09:33;;;;;;;6.70;4.30;;;;;;;18.41;70.49;101492.66;5054160;28;20052;-70
2022/10/12 07:12:01;;;;;;;8.35;4.50;;;;;;;18.51;71.23;101498.00;5053946;28;20489;-70
2022/10/12 07:14:29;;;;;;;11.32;4.72;;;;;;;18.65;69.39;101489.66;5053953;28;20692;-70
2022/10/12 07:16:56;;;;;;;6.20;4.30;;;;;;;18.98;68.75;101498.84;5052204;28;20045;-70
2022/10/12 07:19:24;;;;;;;7.10;4.70;;;;;;;19.09;68.29;101505.00;5053681;28;20041;-70
2022/10/12 07:21:52;;;;;;;8.38;4.63;;;;;;;19.06;68.91;101510.03;5053689;28;20055;-70
2022/10/12 07:24:20;;;;;;;9.05;4.18;;;;;;;19.16;68.88;101499.84;5053474;28;20048;-70
2022/10/12 07:26:49;;;;;;;10.73;4.45;;;;;;;19.27;68.32;101504.00;5053843;28;20044;-70
2022/10/12 07:29:17;;;;;;;10.30;4.82;;;;;;;19.37;68.46;101502.91;5053200;28;20059;-70
2022/10/12 07:31:45;;;;;;;8.13;4.43;;;;;;;19.69;68.00;101500.09;5051460;28;20052;-70
2022/10/12 07:34:18;;;;;;;8.07;5.40;;;;;;;20.07;66.14;101504.34;5053341;28;20049;-70
2022/10/12 07:36:46;;;;;;;8.35;5.55;;;;;;;20.16;64.95;101502.44;5067821;28;20052;-70
2022/10/12 07:39:26;;;;;;;9.15;5.50;;;;;;;20.32;66.04;101501.97;5053234;28;20053;-70
2022/10/12 07:41:54;;;;;;;10.30;5.05;;;;;;;20.33;63.63;101500.84;5052972;28;20495;-70
2022/10/12 07:44:23;;;;;;;8.25;4.90;;;;;;;20.57;63.27;101505.91;5053330;28;20479;-72
2022/10/12 07:46:51;;;;;;;10.38;4.97;;;;;;;20.51;62.61;101498.88;5053181;28;20068;-72
2022/10/12 07:49:19;;;;;;;10.18;4.75;;;;;;;20.63;62.94;101498.25;5052516;28;20044;-73
2022/10/12 07:51:47;;;;;;;9.05;4.53;;;;;;;20.76;60.96;101488.09;5051863;28;20052;-70
2022/10/12 07:54:15;;;;;;;9.68;5.25;;;;;;;20.99;59.66;101499.91;5039545;28;20411;-69
2022/10/12 07:56:49;;;;;;;9.18;5.13;;;;;;;21.03;59.91;101494.47;5053176;28;20052;-69
2022/10/12 07:59:16;;;;;;;10.23;5.05;;;;;;;21.26;60.61;101494.28;5052869;28;20040;-70
2022/10/12 08:01:44;;;;;;;10.55;4.95;;;;;;;21.56;59.44;101494.34;5052249;28;20483;-69
2022/10/12 08:04:12;;;;;;;7.35;4.60;;;;;;;21.70;59.41;101496.97;5051245;28;20049;-70
2022/10/12 08:06:42;;;;;;;10.13;4.45;;;;;;;21.71;59.04;101496.59;5051283;28;20060;-70
2022/10/12 08:09:10;;;;;;;5.32;4.20;;;;;;;21.68;59.34;101502.00;5052620;28;20487;-70
2022/10/12 08:11:39;;;;;;;6.90;4.38;;;;;;;21.61;59.34;101492.19;5052558;28;20068;-70
2022/10/12 08:14:14;;;;;;;9.77;4.60;;;;;;;21.74;58.55;101500.69;5051997;28;20060;-70
2022/10/12 08:16:43;;;;;;;10.50;4.63;;;;;;;21.71;58.92;101510.53;5052729;28;20044;-70
2022/10/12 08:19:11;;;;;;;7.80;4.60;;;;;;;21.90;56.21;101497.34;5051594;28;20085;-70
2022/10/12 08:21:41;;;;;;;9.98;4.30;;;;;;;22.02;56.63;101501.06;5052376;28;20487;-69
2022/10/12 08:24:10;;;;;;;7.88;4.45;;;;;;;22.20;54.76;101492.59;5051741;28;20087;-69
2022/10/12 08:26:38;;;;;;;6.72;4.38;;;;;;;22.46;55.12;101496.34;5051679;28;20411;-70
2022/10/12 08:29:07;;;;;;;7.20;4.40;;;;;;;22.50;54.85;101497.31;5050171;28;20056;-72
2022/10/12 08:31:35;;;;;;;6.10;4.80;;;;;;;22.64;55.05;101497.88;5051988;28;20052;-71
2022/10/12 08:34:03;;;;;;;7.78;3.70;;;;;;;22.67;53.96;101496.38;5052069;28;20048;-72
2022/10/12 08:36:31;;;;;;;5.38;3.85;;;;;;;22.73;53.47;101488.63;5051515;28;20053;-56
2022/10/12 08:38:59;;;;;;;6.10;3.88;;;;;;;23.00;52.65;101481.63;5052016;28;20063;-76
2022/10/12 08:42:05;;;;;;;5.07;3.83;;;;;;;22.85;50.40;101482.25;5050230;28;20057;-72
2022/10/12 08:44:52;;;;;;;6.13;3.45;;;;;;;22.88;50.07;101487.19;5052218;28;20045;-72
2022/10/12 08:47:35;;;;;;;10.13;4.40;;;;;;;23.21;49.40;101475.16;5041371;28;20046;-72
2022/10/12 08:50:06;;;;;;;8.15;3.92;;;;;;;23.31;48.84;101488.72;5052116;28;20144;-72
2022/10/12 08:52:57;;;;;;;5.65;4.18;;;;;;;23.40;48.18;101490.63;5051634;28;20511;-72
2022/10/12 08:55:35;;;;;;;6.60;3.78;;;;;;;23.57;46.02;101486.78;5051711;28;20521;-72
2022/10/12 08:58:08;;;;;;;8.70;4.30;;;;;;;23.62;47.83;101481.78;5050958;28;20056;-72
2022/10/12 09:00:37;;;;;;;6.47;3.55;;;;;;;23.40;47.77;101487.81;5051995;28;20041;-72
2022/10/12 09:03:41;;;;;;;7.75;3.72;;;;;;;23.42;46.79;101485.50;5051297;28;20083;-72
2022/10/12 09:06:16;;;;;;;6.70;3.72;;;;;;;23.67;46.78;101477.97;5047229;28;20518;-72
2022/10/12 09:09:01;;;;;;;7.78;4.10;;;;;;;24.12;45.58;101484.59;5051671;28;20053;-72
2022/10/12 09:11:53;;;;;;;7.63;3.92;;;;;;;23.39;47.27;101475.00;5050772;28;20045;-72
2022/10/12 09:14:26;;;;;;;7.40;3.85;;;;;;;23.27;46.49;101471.00;5051027;28;20064;-72
2022/10/12 09:16:56;;;;;;;6.95;3.30;;;;;;;23.73;45.50;101475.75;5051489;28;20059;-73
2022/10/12 09:19:41;;;;;;;7.07;3.53;;;;;;;23.88;44.14;101469.47;5051790;28;20056;-73
2022/10/12 09:22:18;;;;;;;4.18;3.33;;;;;;;24.38;43.79;101474.16;5052125;28;20053;-71
2022/10/12 09:24:49;;;;;;;5.70;3.30;;;;;;;24.62;42.59;101478.06;5070447;28;20052;-73
2022/10/12 09:27:19;;;;;;;7.28;3.17;;;;;;;24.48;42.76;101478.47;5052984;28;20104;-71
2022/10/12 09:29:53;;;;;;;5.18;3.20;;;;;;;23.68;42.76;101475.97;5051816;28;20052;-71
2022/10/12 09:32:55;;;;;;;4.68;3.40;;;;;;;23.80;42.94;101470.38;5051839;28;20052;-70
2022/10/12 09:35:23;;;;;;;8.52;4.00;;;;;;;23.65;43.81;101476.69;5033457;28;20057;-71
2022/10/12 09:37:52;;;;;;;12.52;3.75;;;;;;;24.15;42.47;101472.69;5017748;28;20044;-71
2022/10/12 09:40:29;;;;;;;7.38;4.00;;;;;;;24.60;42.13;101472.84;5050801;28;20134;-71
2022/10/12 09:43:02;;;;;;;9.40;3.47;;;;;;;24.50;41.87;101476.13;5050252;28;20056;-72
2022/10/12 09:45:32;;;;;;;6.07;3.30;;;;;;;23.93;41.03;101473.16;5051406;28;20045;-71
2022/10/12 09:48:18;;;;;;;12.70;3.60;;;;;;;23.84;42.16;101465.72;5050380;28;20041;-71
2022/10/12 09:50:54;;;;;;;6.10;3.60;;;;;;;23.61;41.72;101471.78;5051353;28;20045;-71
2022/10/12 09:53:33;;;;;;;4.35;3.28;;;;;;;23.74;41.44;101468.97;5050314;28;20048;-72
2022/10/12 09:56:04;;;;;;;4.00;2.92;;;;;;;24.36;41.21;101473.72;5038146;28;20037;-73
2022/10/12 09:58:50;;;;;;;5.90;3.03;;;;;;;24.82;39.08;101465.88;5051306;28;20068;-71
2022/10/12 10:01:20;;;;;;;6.90;2.67;;;;;;;25.26;40.04;101472.66;5039531;28;20041;-71
2022/10/12 10:04:10;;;;;;;6.13;3.03;;;;;;;25.04;39.14;101471.25;5051028;28;20052;-72
2022/10/12 10:06:42;;;;;;;11.27;3.35;;;;;;;25.03;39.21;101470.44;5041120;28;20053;-72
2022/10/12 10:09:33;;;;;;;4.20;2.90;;;;;;;24.86;39.18;101474.38;5051366;28;20048;-72
2022/10/12 10:12:25;;;;;;;7.45;2.95;;;;;;;24.75;40.12;101464.84;5051158;28;20052;-73
2022/10/12 10:14:55;;;;;;;5.43;3.33;;;;;;;24.72;39.42;101463.56;5051153;28;20423;-73
2022/10/12 10:17:30;;;;;;;6.63;3.67;;;;;;;24.33;40.39;101464.03;5050931;28;20068;-73
2022/10/12 10:20:02;;;;;;;8.30;3.63;;;;;;;24.72;39.14;101460.78;5051048;28;20503;-73
2022/10/12 10:22:31;;;;;;;5.85;2.80;;;;;;;24.92;39.47;101458.97;5050826;28;20045;-72
2022/10/12 10:24:59;;;;;;;4.38;2.92;;;;;;;24.51;39.33;101472.16;5050929;28;20064;-73
2022/10/12 10:27:36;;;;;;;3.47;2.92;;;;;;;23.74;39.51;101457.81;5053496;28;20045;-73
2022/10/12 10:30:18;;;;;;;8.80;3.50;;;;;;;24.39;40.64;101471.03;5054711;28;20072;-83
2022/10/12 10:33:18;;;;;;;4.35;2.88;;;;;;;24.28;41.21;101470.72;5054940;28;20044;-84
2022/10/12 10:35:58;;;;;;;8.10;3.00;;;;;;;24.35;41.65;101452.50;5042634;28;20052;-84
2022/10/12 10:38:29;;;;;;;5.13;2.67;;;;;;;24.21;41.16;101458.47;5054521;28;20597;-83
2022/10/12 10:40:59;;;;;;;4.68;3.10;;;;;;;24.23;41.49;101458.94;5054356;28;20479;-84
2022/10/12 10:43:30;;;;;;;7.07;3.03;;;;;;;23.96;42.18;101464.09;5054391;28;20491;-83
2022/10/12 10:46:03;;;;;;;6.47;2.75;;;;;;;23.97;42.40;101466.53;5054574;28;20041;-86
2022/10/12 10:49:00;;;;;;;4.70;3.28;;;;;;;24.23;42.27;101478.50;5053137;28;20041;-85
2022/10/12 10:51:46;;;;;;;4.35;3.17;;;;;;;24.35;41.80;101472.91;5054366;28;20368;-85
2022/10/12 10:54:37;;;;;;;9.00;3.40;;;;;;;24.17;42.31;101458.38;5054230;28;20045;-83
2022/10/12 10:57:12;;;;;;;10.40;3.40;;;;;;;24.27;42.15;101468.25;5052919;28;20069;-84
2022/10/12 10:59:49;;;;;;;6.70;3.28;;;;;;;24.08;41.98;101471.66;5054166;28;20052;-83
2022/10/12 11:02:44;;;;;;;6.30;3.63;;;;;;;24.28;42.37;101464.28;5048310;28;20502;-84
2022/10/12 11:06:06;;;;;;;4.25;2.85;;;;;;;24.32;42.54;101470.81;5035270;28;20062;-83
2022/10/12 11:08:35;;;;;;;5.50;3.17;;;;;;;24.32;42.30;101453.19;5003818;28;20069;-84
2022/10/12 11:11:28;;;;;;;7.22;3.50;;;;;;;24.19;42.87;101464.41;5050777;28;20408;-83
2022/10/12 11:14:08;;;;;;;4.97;3.35;;;;;;;24.32;43.00;101459.63;5042526;28;20064;-82
2022/10/12 11:16:54;;;;;;;5.57;3.15;;;;;;;24.37;42.06;101462.19;5053792;28;20052;-83
2022/10/12 11:19:54;;;;;;;6.20;3.72;;;;;;;24.54;42.16;101463.06;5053523;28;20044;-84
2022/10/12 11:22:38;;;;;;;5.13;2.88;;;;;;;24.52;42.28;101454.19;5053649;28;20052;-83
2022/10/12 11:25:07;;;;;;;4.50;3.50;;;;;;;24.70;41.32;101458.31;5040631;28;20037;-83
2022/10/12 11:27:40;;;;;;;4.45;3.10;;;;;;;24.69;41.41;101456.69;5053316;28;20049;-83
2022/10/12 11:30:18;;;;;;;4.75;3.03;;;;;;;24.61;41.65;101454.03;5053332;28;20048;-83
2022/10/12 11:32:55;;;;;;;4.68;3.30;;;;;;;24.73;41.50;101461.59;5053404;28;20052;-83
2022/10/12 11:35:34;;;;;;;7.32;3.22;;;;;;;24.74;41.75;101440.81;5051981;28;20049;-83
2022/10/12 11:38:05;;;;;;;5.53;3.60;;;;;;;24.73;41.67;101450.41;5051444;28;20041;-83
2022/10/12 11:40:44;;;;;;;5.15;3.53;;;;;;;24.68;41.89;101435.47;5053153;28;20049;-84
2022/10/12 11:43:48;;;;;;;9.75;3.47;;;;;;;24.73;40.45;101420.41;5052731;28;20041;-83
2022/10/12 11:46:22;;;;;;;4.53;3.35;;;;;;;24.97;40.79;101435.47;5052528;28;20491;-83
2022/10/12 11:49:13;;;;;;;4.97;3.10;;;;;;;25.01;41.61;101427.16;5050833;28;20051;-84